sensor_id;sensor_type;location;lat;lon;timestamp;temperature;humidity
59075;DHT22;44860;53.020;6.738;2023-09-19T00:00:38;15.60;99.90
59075;DHT22;44860;53.020;6.738;2023-09-19T00:03:05;15.60;99.90
59075;DHT22;44860;53.020;6.738;2023-09-19T00:05:34;15.50;99.90
59075;DHT22;44860;53.020;6.738;2023-09-19T00:08:01;15.50;99.90
59075;DHT22;44860;53.020;6.738;2023-09-19T00:10:30;15.50;99.90
59075;DHT22;44860;53.020;6.738;2023-09-19T00:13:03;15.50;99.90
59075;DHT22;44860;53.020;6.738;2023-09-19T00:15:43;15.40;99.90
59075;DHT22;44860;53.020;6.738;2023-09-19T00:18:14;15.40;99.90
59075;DHT22;44860;53.020;6.738;2023-09-19T00:20:41;15.30;99.90
59075;DHT22;44860;53.020;6.738;2023-09-19T00:23:07;15.30;99.90
59075;DHT22;44860;53.020;6.738;2023-09-19T00:25:36;15.30;99.90
59075;DHT22;44860;53.020;6.738;2023-09-19T00:28:03;15.20;99.90
59075;DHT22;44860;53.020;6.738;2023-09-19T00:30:30;15.20;99.90
59075;DHT22;44860;53.020;6.738;2023-09-19T00:32:56;15.20;99.90
59075;DHT22;44860;53.020;6.738;2023-09-19T00:35:22;15.10;99.90
59075;DHT22;44860;53.020;6.738;2023-09-19T00:37:51;15.10;99.90
59075;DHT22;44860;53.020;6.738;2023-09-19T00:40:17;15.10;99.90
59075;DHT22;44860;53.020;6.738;2023-09-19T00:42:45;15.00;99.90
59075;DHT22;44860;53.020;6.738;2023-09-19T00:45:12;15.00;99.90
59075;DHT22;44860;53.020;6.738;2023-09-19T00:47:43;14.90;99.90
59075;DHT22;44860;53.020;6.738;2023-09-19T00:50:10;14.90;99.90
59075;DHT22;44860;53.020;6.738;2023-09-19T00:52:40;14.80;99.90
59075;DHT22;44860;53.020;6.738;2023-09-19T00:55:08;14.80;99.90
59075;DHT22;44860;53.020;6.738;2023-09-19T00:57:35;14.80;99.90
59075;DHT22;44860;53.020;6.738;2023-09-19T01:00:02;14.80;99.90
59075;DHT22;44860;53.020;6.738;2023-09-19T01:02:33;14.70;99.90
59075;DHT22;44860;53.020;6.738;2023-09-19T01:04:59;14.70;99.90
59075;DHT22;44860;53.020;6.738;2023-09-19T01:07:31;14.70;99.90
59075;DHT22;44860;53.020;6.738;2023-09-19T01:09:57;14.70;99.90
59075;DHT22;44860;53.020;6.738;2023-09-19T01:12:37;14.60;99.90
59075;DHT22;44860;53.020;6.738;2023-09-19T01:15:37;14.60;99.90
59075;DHT22;44860;53.020;6.738;2023-09-19T01:18:16;14.60;99.90
59075;DHT22;44860;53.020;6.738;2023-09-19T01:20:56;14.60;99.90
59075;DHT22;44860;53.020;6.738;2023-09-19T01:32:04;14.40;99.90
59075;DHT22;44860;53.020;6.738;2023-09-19T01:34:55;14.40;99.90
59075;DHT22;44860;53.020;6.738;2023-09-19T01:37:24;14.40;99.90
59075;DHT22;44860;53.020;6.738;2023-09-19T01:40:07;14.30;99.90
59075;DHT22;44860;53.020;6.738;2023-09-19T01:51:03;14.30;99.90
59075;DHT22;44860;53.020;6.738;2023-09-19T01:53:56;14.20;99.90
59075;DHT22;44860;53.020;6.738;2023-09-19T01:56:45;14.20;99.90
59075;DHT22;44860;53.020;6.738;2023-09-19T01:59:17;14.20;99.90
59075;DHT22;44860;53.020;6.738;2023-09-19T02:01:48;14.20;99.90
59075;DHT22;44860;53.020;6.738;2023-09-19T02:04:15;14.20;99.90
59075;DHT22;44860;53.020;6.738;2023-09-19T02:06:41;14.20;99.90
59075;DHT22;44860;53.020;6.738;2023-09-19T02:09:07;14.10;99.90
59075;DHT22;44860;53.020;6.738;2023-09-19T02:11:34;14.10;99.90
59075;DHT22;44860;53.020;6.738;2023-09-19T02:14:01;14.10;99.90
59075;DHT22;44860;53.020;6.738;2023-09-19T02:16:28;14.10;99.90
59075;DHT22;44860;53.020;6.738;2023-09-19T02:18:54;14.10;99.90
59075;DHT22;44860;53.020;6.738;2023-09-19T02:21:20;14.00;99.90
59075;DHT22;44860;53.020;6.738;2023-09-19T02:23:47;14.00;99.90
59075;DHT22;44860;53.020;6.738;2023-09-19T02:26:13;14.00;99.90
59075;DHT22;44860;53.020;6.738;2023-09-19T02:28:39;14.00;99.90
59075;DHT22;44860;53.020;6.738;2023-09-19T02:31:05;14.00;99.90
59075;DHT22;44860;53.020;6.738;2023-09-19T02:33:31;13.90;99.90
59075;DHT22;44860;53.020;6.738;2023-09-19T02:36:00;13.90;99.90
59075;DHT22;44860;53.020;6.738;2023-09-19T02:38:26;13.90;99.90
59075;DHT22;44860;53.020;6.738;2023-09-19T02:40:52;13.90;99.90
59075;DHT22;44860;53.020;6.738;2023-09-19T02:43:18;13.90;99.90
59075;DHT22;44860;53.020;6.738;2023-09-19T02:45:45;13.90;99.90
59075;DHT22;44860;53.020;6.738;2023-09-19T02:48:12;13.80;99.90
59075;DHT22;44860;53.020;6.738;2023-09-19T02:50:38;13.80;99.90
59075;DHT22;44860;53.020;6.738;2023-09-19T02:53:05;13.80;99.90
59075;DHT22;44860;53.020;6.738;2023-09-19T02:55:32;13.80;99.90
59075;DHT22;44860;53.020;6.738;2023-09-19T02:57:58;13.80;99.90
59075;DHT22;44860;53.020;6.738;2023-09-19T03:00:24;13.80;99.90
59075;DHT22;44860;53.020;6.738;2023-09-19T03:02:51;13.80;99.90
59075;DHT22;44860;53.020;6.738;2023-09-19T03:05:18;13.80;99.90
59075;DHT22;44860;53.020;6.738;2023-09-19T03:07:44;13.70;99.90
59075;DHT22;44860;53.020;6.738;2023-09-19T03:10:12;13.80;99.90
59075;DHT22;44860;53.020;6.738;2023-09-19T03:12:40;13.80;99.90
59075;DHT22;44860;53.020;6.738;2023-09-19T03:15:06;13.80;99.90
59075;DHT22;44860;53.020;6.738;2023-09-19T03:17:34;13.80;99.90
59075;DHT22;44860;53.020;6.738;2023-09-19T03:20:01;13.80;99.90
59075;DHT22;44860;53.020;6.738;2023-09-19T03:22:28;13.70;99.90
59075;DHT22;44860;53.020;6.738;2023-09-19T03:24:53;13.70;99.90
59075;DHT22;44860;53.020;6.738;2023-09-19T03:27:19;13.70;99.90
59075;DHT22;44860;53.020;6.738;2023-09-19T03:29:46;13.70;99.90
59075;DHT22;44860;53.020;6.738;2023-09-19T03:32:12;13.70;99.90
59075;DHT22;44860;53.020;6.738;2023-09-19T03:34:38;13.70;99.90
59075;DHT22;44860;53.020;6.738;2023-09-19T03:37:11;13.70;99.90
59075;DHT22;44860;53.020;6.738;2023-09-19T03:39:37;13.70;99.90
59075;DHT22;44860;53.020;6.738;2023-09-19T03:42:02;13.80;99.90
59075;DHT22;44860;53.020;6.738;2023-09-19T03:44:30;13.70;99.90
59075;DHT22;44860;53.020;6.738;2023-09-19T03:46:56;13.80;99.90
59075;DHT22;44860;53.020;6.738;2023-09-19T03:49:22;13.70;99.90
59075;DHT22;44860;53.020;6.738;2023-09-19T03:51:48;13.70;99.90
59075;DHT22;44860;53.020;6.738;2023-09-19T03:54:14;13.70;99.90
59075;DHT22;44860;53.020;6.738;2023-09-19T03:56:40;13.70;99.90
59075;DHT22;44860;53.020;6.738;2023-09-19T03:59:06;13.70;99.90
59075;DHT22;44860;53.020;6.738;2023-09-19T04:01:33;13.70;99.90
59075;DHT22;44860;53.020;6.738;2023-09-19T04:03:59;13.70;99.90
59075;DHT22;44860;53.020;6.738;2023-09-19T04:06:33;13.70;99.90
59075;DHT22;44860;53.020;6.738;2023-09-19T04:09:00;13.70;99.90
59075;DHT22;44860;53.020;6.738;2023-09-19T04:11:26;13.70;99.90
59075;DHT22;44860;53.020;6.738;2023-09-19T04:13:52;13.70;99.90
59075;DHT22;44860;53.020;6.738;2023-09-19T04:16:18;13.70;99.90
59075;DHT22;44860;53.020;6.738;2023-09-19T04:18:43;13.70;99.90
59075;DHT22;44860;53.020;6.738;2023-09-19T04:21:09;13.70;99.90
59075;DHT22;44860;53.020;6.738;2023-09-19T04:23:35;13.70;99.90
59075;DHT22;44860;53.020;6.738;2023-09-19T04:26:00;13.70;99.90
59075;DHT22;44860;53.020;6.738;2023-09-19T04:28:26;13.70;99.90
59075;DHT22;44860;53.020;6.738;2023-09-19T04:30:53;13.70;99.90
59075;DHT22;44860;53.020;6.738;2023-09-19T04:33:20;13.70;99.90
59075;DHT22;44860;53.020;6.738;2023-09-19T04:35:51;13.70;99.90
59075;DHT22;44860;53.020;6.738;2023-09-19T04:38:20;13.70;99.90
59075;DHT22;44860;53.020;6.738;2023-09-19T04:40:46;13.80;99.90
59075;DHT22;44860;53.020;6.738;2023-09-19T04:43:12;13.80;99.90
59075;DHT22;44860;53.020;6.738;2023-09-19T04:45:39;13.80;99.90
59075;DHT22;44860;53.020;6.738;2023-09-19T04:48:05;13.80;99.90
59075;DHT22;44860;53.020;6.738;2023-09-19T04:50:34;13.80;99.90
59075;DHT22;44860;53.020;6.738;2023-09-19T04:53:00;13.90;99.90
59075;DHT22;44860;53.020;6.738;2023-09-19T04:55:26;13.90;99.90
59075;DHT22;44860;53.020;6.738;2023-09-19T04:57:53;13.90;99.90
59075;DHT22;44860;53.020;6.738;2023-09-19T05:00:22;13.90;99.90
59075;DHT22;44860;53.020;6.738;2023-09-19T05:02:56;13.90;99.90
59075;DHT22;44860;53.020;6.738;2023-09-19T05:05:22;13.90;99.90
59075;DHT22;44860;53.020;6.738;2023-09-19T05:07:49;13.90;99.90
59075;DHT22;44860;53.020;6.738;2023-09-19T05:10:15;13.90;99.90
59075;DHT22;44860;53.020;6.738;2023-09-19T05:12:41;13.90;99.90
59075;DHT22;44860;53.020;6.738;2023-09-19T05:15:07;13.90;99.90
59075;DHT22;44860;53.020;6.738;2023-09-19T05:17:34;13.90;99.90
59075;DHT22;44860;53.020;6.738;2023-09-19T05:20:00;13.90;99.90
59075;DHT22;44860;53.020;6.738;2023-09-19T05:22:31;13.80;99.90
59075;DHT22;44860;53.020;6.738;2023-09-19T05:24:58;13.90;99.90
59075;DHT22;44860;53.020;6.738;2023-09-19T05:27:24;13.80;99.90
59075;DHT22;44860;53.020;6.738;2023-09-19T05:29:49;13.90;99.90
59075;DHT22;44860;53.020;6.738;2023-09-19T05:32:18;13.90;99.90
59075;DHT22;44860;53.020;6.738;2023-09-19T05:34:45;13.90;99.90
59075;DHT22;44860;53.020;6.738;2023-09-19T05:37:13;13.90;99.90
59075;DHT22;44860;53.020;6.738;2023-09-19T05:39:41;13.90;99.90
59075;DHT22;44860;53.020;6.738;2023-09-19T05:42:07;13.90;99.90
59075;DHT22;44860;53.020;6.738;2023-09-19T05:44:33;13.90;99.90
59075;DHT22;44860;53.020;6.738;2023-09-19T05:46:59;13.90;99.90
59075;DHT22;44860;53.020;6.738;2023-09-19T05:49:25;13.90;99.90
59075;DHT22;44860;53.020;6.738;2023-09-19T05:51:51;13.90;99.90
59075;DHT22;44860;53.020;6.738;2023-09-19T05:54:19;13.90;99.90
59075;DHT22;44860;53.020;6.738;2023-09-19T05:56:45;13.90;99.90
59075;DHT22;44860;53.020;6.738;2023-09-19T05:59:12;13.90;99.90
59075;DHT22;44860;53.020;6.738;2023-09-19T06:01:42;13.90;99.90
59075;DHT22;44860;53.020;6.738;2023-09-19T06:04:07;13.90;99.90
59075;DHT22;44860;53.020;6.738;2023-09-19T06:06:33;13.90;99.90
59075;DHT22;44860;53.020;6.738;2023-09-19T06:09:06;13.90;99.90
59075;DHT22;44860;53.020;6.738;2023-09-19T06:11:34;13.80;99.90
59075;DHT22;44860;53.020;6.738;2023-09-19T06:14:04;13.80;99.90
59075;DHT22;44860;53.020;6.738;2023-09-19T06:16:30;13.80;99.90
59075;DHT22;44860;53.020;6.738;2023-09-19T06:18:58;13.80;99.90
59075;DHT22;44860;53.020;6.738;2023-09-19T06:21:26;13.80;99.90
59075;DHT22;44860;53.020;6.738;2023-09-19T06:23:55;13.80;99.90
59075;DHT22;44860;53.020;6.738;2023-09-19T06:26:23;13.80;99.90
59075;DHT22;44860;53.020;6.738;2023-09-19T06:28:49;13.90;99.90
59075;DHT22;44860;53.020;6.738;2023-09-19T06:31:14;13.90;99.90
59075;DHT22;44860;53.020;6.738;2023-09-19T06:33:40;13.90;99.90
59075;DHT22;44860;53.020;6.738;2023-09-19T06:36:07;13.90;99.90
59075;DHT22;44860;53.020;6.738;2023-09-19T06:38:33;14.00;99.90
59075;DHT22;44860;53.020;6.738;2023-09-19T06:41:04;14.00;99.90
59075;DHT22;44860;53.020;6.738;2023-09-19T06:43:34;14.00;99.90
59075;DHT22;44860;53.020;6.738;2023-09-19T06:46:03;14.00;99.90
59075;DHT22;44860;53.020;6.738;2023-09-19T06:48:30;14.00;99.90
59075;DHT22;44860;53.020;6.738;2023-09-19T06:50:56;14.00;99.90
59075;DHT22;44860;53.020;6.738;2023-09-19T06:53:24;14.00;99.90
59075;DHT22;44860;53.020;6.738;2023-09-19T06:55:53;14.00;99.90
59075;DHT22;44860;53.020;6.738;2023-09-19T06:58:19;14.00;99.90
59075;DHT22;44860;53.020;6.738;2023-09-19T07:00:46;14.00;99.90
59075;DHT22;44860;53.020;6.738;2023-09-19T07:03:14;14.00;99.90
59075;DHT22;44860;53.020;6.738;2023-09-19T07:05:41;14.10;99.90
59075;DHT22;44860;53.020;6.738;2023-09-19T07:08:09;14.10;99.90
59075;DHT22;44860;53.020;6.738;2023-09-19T07:10:36;14.10;99.90
59075;DHT22;44860;53.020;6.738;2023-09-19T07:13:03;14.20;99.90
59075;DHT22;44860;53.020;6.738;2023-09-19T07:15:30;14.20;99.90
59075;DHT22;44860;53.020;6.738;2023-09-19T07:17:59;14.20;99.90
59075;DHT22;44860;53.020;6.738;2023-09-19T07:20:26;14.20;99.90
59075;DHT22;44860;53.020;6.738;2023-09-19T07:22:53;14.20;99.90
59075;DHT22;44860;53.020;6.738;2023-09-19T07:25:21;14.30;99.90
59075;DHT22;44860;53.020;6.738;2023-09-19T07:27:46;14.30;99.90
59075;DHT22;44860;53.020;6.738;2023-09-19T07:30:12;14.30;99.90
59075;DHT22;44860;53.020;6.738;2023-09-19T07:32:39;14.40;99.90
59075;DHT22;44860;53.020;6.738;2023-09-19T07:35:06;14.40;99.90
59075;DHT22;44860;53.020;6.738;2023-09-19T07:37:32;14.50;99.90
59075;DHT22;44860;53.020;6.738;2023-09-19T07:40:05;14.50;99.90
59075;DHT22;44860;53.020;6.738;2023-09-19T07:42:35;14.60;99.90
59075;DHT22;44860;53.020;6.738;2023-09-19T07:45:05;14.60;99.90
59075;DHT22;44860;53.020;6.738;2023-09-19T07:47:30;14.70;99.90
59075;DHT22;44860;53.020;6.738;2023-09-19T07:49:58;14.70;99.90
59075;DHT22;44860;53.020;6.738;2023-09-19T07:52:25;14.70;99.90
59075;DHT22;44860;53.020;6.738;2023-09-19T07:54:53;14.70;99.90
59075;DHT22;44860;53.020;6.738;2023-09-19T07:57:19;14.70;99.90
59075;DHT22;44860;53.020;6.738;2023-09-19T07:59:45;14.80;99.90
59075;DHT22;44860;53.020;6.738;2023-09-19T08:02:11;14.80;99.90
59075;DHT22;44860;53.020;6.738;2023-09-19T08:04:45;14.80;99.90
59075;DHT22;44860;53.020;6.738;2023-09-19T08:07:15;14.80;99.90
59075;DHT22;44860;53.020;6.738;2023-09-19T08:09:41;14.80;99.90
59075;DHT22;44860;53.020;6.738;2023-09-19T08:12:07;14.90;99.90
59075;DHT22;44860;53.020;6.738;2023-09-19T08:14:36;14.90;99.90
59075;DHT22;44860;53.020;6.738;2023-09-19T08:17:02;14.90;99.90
59075;DHT22;44860;53.020;6.738;2023-09-19T08:19:28;15.00;99.90
59075;DHT22;44860;53.020;6.738;2023-09-19T08:21:58;15.00;99.90
59075;DHT22;44860;53.020;6.738;2023-09-19T08:24:27;15.00;99.90
59075;DHT22;44860;53.020;6.738;2023-09-19T08:26:57;15.00;99.90
59075;DHT22;44860;53.020;6.738;2023-09-19T08:29:24;15.10;99.90
59075;DHT22;44860;53.020;6.738;2023-09-19T08:31:57;15.10;99.90
59075;DHT22;44860;53.020;6.738;2023-09-19T08:34:26;15.10;99.90
59075;DHT22;44860;53.020;6.738;2023-09-19T08:36:53;15.20;99.90
59075;DHT22;44860;53.020;6.738;2023-09-19T08:39:22;15.20;99.90
59075;DHT22;44860;53.020;6.738;2023-09-19T08:41:48;15.30;99.90
59075;DHT22;44860;53.020;6.738;2023-09-19T08:44:14;15.40;99.90
59075;DHT22;44860;53.020;6.738;2023-09-19T08:46:41;15.40;99.90
59075;DHT22;44860;53.020;6.738;2023-09-19T08:50:13;15.50;99.90
59075;DHT22;44860;53.020;6.738;2023-09-19T08:52:27;15.60;99.90
59075;DHT22;44860;53.020;6.738;2023-09-19T08:54:58;15.60;99.90
59075;DHT22;44860;53.020;6.738;2023-09-19T08:57:25;15.70;99.90
59075;DHT22;44860;53.020;6.738;2023-09-19T08:59:55;15.80;99.90
59075;DHT22;44860;53.020;6.738;2023-09-19T09:02:22;15.90;99.90
59075;DHT22;44860;53.020;6.738;2023-09-19T09:04:49;15.90;99.90
59075;DHT22;44860;53.020;6.738;2023-09-19T09:07:16;16.00;99.90
59075;DHT22;44860;53.020;6.738;2023-09-19T09:09:44;16.00;99.90
59075;DHT22;44860;53.020;6.738;2023-09-19T09:12:14;16.10;99.90
59075;DHT22;44860;53.020;6.738;2023-09-19T09:14:45;16.10;99.90
59075;DHT22;44860;53.020;6.738;2023-09-19T09:17:12;16.10;99.90
59075;DHT22;44860;53.020;6.738;2023-09-19T09:19:38;16.20;99.90
59075;DHT22;44860;53.020;6.738;2023-09-19T09:22:11;16.20;99.90
59075;DHT22;44860;53.020;6.738;2023-09-19T09:24:37;16.20;99.90
59075;DHT22;44860;53.020;6.738;2023-09-19T09:27:05;16.20;99.90
59075;DHT22;44860;53.020;6.738;2023-09-19T09:34:54;16.40;99.90
59075;DHT22;44860;53.020;6.738;2023-09-19T09:37:21;16.50;99.90
59075;DHT22;44860;53.020;6.738;2023-09-19T09:40:03;16.60;99.90
59075;DHT22;44860;53.020;6.738;2023-09-19T09:42:41;16.70;99.90
59075;DHT22;44860;53.020;6.738;2023-09-19T09:45:23;16.70;99.90
59075;DHT22;44860;53.020;6.738;2023-09-19T09:47:58;16.80;99.90
59075;DHT22;44860;53.020;6.738;2023-09-19T09:50:29;16.90;99.90
59075;DHT22;44860;53.020;6.738;2023-09-19T09:53:02;16.90;99.90
59075;DHT22;44860;53.020;6.738;2023-09-19T09:58:22;17.10;99.90
59075;DHT22;44860;53.020;6.738;2023-09-19T10:00:55;17.20;99.90
59075;DHT22;44860;53.020;6.738;2023-09-19T10:03:37;17.20;99.90
59075;DHT22;44860;53.020;6.738;2023-09-19T10:06:11;17.30;99.90
59075;DHT22;44860;53.020;6.738;2023-09-19T10:09:08;17.30;99.90
59075;DHT22;44860;53.020;6.738;2023-09-19T10:11:44;17.40;99.90
59075;DHT22;44860;53.020;6.738;2023-09-19T10:14:16;17.40;99.90
59075;DHT22;44860;53.020;6.738;2023-09-19T10:16:47;17.50;99.90
59075;DHT22;44860;53.020;6.738;2023-09-19T10:22:17;17.50;99.90
59075;DHT22;44860;53.020;6.738;2023-09-19T10:24:49;17.60;99.90
59075;DHT22;44860;53.020;6.738;2023-09-19T10:27:20;17.70;99.90
59075;DHT22;44860;53.020;6.738;2023-09-19T10:29:52;17.80;99.90
59075;DHT22;44860;53.020;6.738;2023-09-19T10:32:22;17.80;99.90
59075;DHT22;44860;53.020;6.738;2023-09-19T10:34:49;17.90;99.90
59075;DHT22;44860;53.020;6.738;2023-09-19T10:37:21;18.00;99.90
59075;DHT22;44860;53.020;6.738;2023-09-19T10:39:52;18.10;99.90
59075;DHT22;44860;53.020;6.738;2023-09-19T10:42:23;18.20;99.90
59075;DHT22;44860;53.020;6.738;2023-09-19T10:44:54;18.20;99.90
59075;DHT22;44860;53.020;6.738;2023-09-19T10:47:20;18.20;99.90
59075;DHT22;44860;53.020;6.738;2023-09-19T10:49:47;18.20;99.90
59075;DHT22;44860;53.020;6.738;2023-09-19T10:52:19;18.20;99.90
59075;DHT22;44860;53.020;6.738;2023-09-19T10:54:48;18.20;99.90
59075;DHT22;44860;53.020;6.738;2023-09-19T10:57:21;18.30;99.90
59075;DHT22;44860;53.020;6.738;2023-09-19T11:00:06;18.30;99.90
59075;DHT22;44860;53.020;6.738;2023-09-19T11:06:07;18.30;99.90
59075;DHT22;44860;53.020;6.738;2023-09-19T11:08:56;18.30;99.90
59075;DHT22;44860;53.020;6.738;2023-09-19T11:11:41;18.40;99.90
59075;DHT22;44860;53.020;6.738;2023-09-19T11:30:50;18.60;99.90
59075;DHT22;44860;53.020;6.738;2023-09-19T11:33:19;18.50;99.90
59075;DHT22;44860;53.020;6.738;2023-09-19T11:36:06;18.60;99.90
59075;DHT22;44860;53.020;6.738;2023-09-19T11:49:26;18.70;99.90
59075;DHT22;44860;53.020;6.738;2023-09-19T11:51:56;18.70;99.90
59075;DHT22;44860;53.020;6.738;2023-09-19T11:54:22;18.60;99.90
59075;DHT22;44860;53.020;6.738;2023-09-19T11:56:51;18.60;99.90
59075;DHT22;44860;53.020;6.738;2023-09-19T11:59:20;18.70;99.90
59075;DHT22;44860;53.020;6.738;2023-09-19T12:01:52;18.70;99.90
59075;DHT22;44860;53.020;6.738;2023-09-19T12:04:39;18.70;99.90
59075;DHT22;44860;53.020;6.738;2023-09-19T12:07:14;18.70;99.90
59075;DHT22;44860;53.020;6.738;2023-09-19T12:10:02;18.70;99.90
59075;DHT22;44860;53.020;6.738;2023-09-19T12:12:28;18.70;99.90
59075;DHT22;44860;53.020;6.738;2023-09-19T12:14:56;18.60;99.90
59075;DHT22;44860;53.020;6.738;2023-09-19T12:17:37;18.60;99.90
59075;DHT22;44860;53.020;6.738;2023-09-19T12:20:05;18.60;99.90
59075;DHT22;44860;53.020;6.738;2023-09-19T12:22:45;18.60;99.90
59075;DHT22;44860;53.020;6.738;2023-09-19T12:25:12;18.60;99.90
59075;DHT22;44860;53.020;6.738;2023-09-19T12:27:46;18.60;99.90
59075;DHT22;44860;53.020;6.738;2023-09-19T12:30:29;18.60;99.90
59075;DHT22;44860;53.020;6.738;2023-09-19T12:32:59;18.50;99.90
59075;DHT22;44860;53.020;6.738;2023-09-19T12:35:32;18.50;99.90
59075;DHT22;44860;53.020;6.738;2023-09-19T12:38:01;18.50;99.90
59075;DHT22;44860;53.020;6.738;2023-09-19T12:40:29;18.40;99.90
59075;DHT22;44860;53.020;6.738;2023-09-19T12:42:55;18.40;99.90
59075;DHT22;44860;53.020;6.738;2023-09-19T12:45:21;18.40;99.90
59075;DHT22;44860;53.020;6.738;2023-09-19T12:48:22;18.40;99.90
59075;DHT22;44860;53.020;6.738;2023-09-19T12:51:11;18.40;99.90
59075;DHT22;44860;53.020;6.738;2023-09-19T12:53:45;18.40;99.90
59075;DHT22;44860;53.020;6.738;2023-09-19T12:56:17;18.40;99.90
59075;DHT22;44860;53.020;6.738;2023-09-19T12:58:57;18.40;99.90
59075;DHT22;44860;53.020;6.738;2023-09-19T13:01:26;18.40;99.90
59075;DHT22;44860;53.020;6.738;2023-09-19T13:04:12;18.40;99.90
59075;DHT22;44860;53.020;6.738;2023-09-19T13:06:48;18.40;99.90
59075;DHT22;44860;53.020;6.738;2023-09-19T13:09:15;18.30;99.90
59075;DHT22;44860;53.020;6.738;2023-09-19T13:11:42;18.30;99.90
59075;DHT22;44860;53.020;6.738;2023-09-19T13:14:26;18.30;99.90
59075;DHT22;44860;53.020;6.738;2023-09-19T13:17:09;18.30;99.90
59075;DHT22;44860;53.020;6.738;2023-09-19T13:19:55;18.20;99.90
59075;DHT22;44860;53.020;6.738;2023-09-19T13:22:45;18.30;99.90
59075;DHT22;44860;53.020;6.738;2023-09-19T13:25:17;18.20;99.90
59075;DHT22;44860;53.020;6.738;2023-09-19T13:27:45;18.20;99.90
59075;DHT22;44860;53.020;6.738;2023-09-19T13:30:12;18.30;99.90
59075;DHT22;44860;53.020;6.738;2023-09-19T13:32:38;18.20;99.90
59075;DHT22;44860;53.020;6.738;2023-09-19T13:35:06;18.20;99.90
59075;DHT22;44860;53.020;6.738;2023-09-19T13:37:35;18.20;99.90
59075;DHT22;44860;53.020;6.738;2023-09-19T13:40:14;18.20;99.90
59075;DHT22;44860;53.020;6.738;2023-09-19T13:42:40;18.30;99.90
59075;DHT22;44860;53.020;6.738;2023-09-19T13:45:07;18.20;99.90
59075;DHT22;44860;53.020;6.738;2023-09-19T13:47:33;18.20;99.90
59075;DHT22;44860;53.020;6.738;2023-09-19T13:50:02;18.30;99.90
59075;DHT22;44860;53.020;6.738;2023-09-19T13:52:30;18.30;99.90
59075;DHT22;44860;53.020;6.738;2023-09-19T13:54:57;18.20;99.90
59075;DHT22;44860;53.020;6.738;2023-09-19T13:57:23;18.30;99.90
59075;DHT22;44860;53.020;6.738;2023-09-19T13:59:49;18.20;99.90
59075;DHT22;44860;53.020;6.738;2023-09-19T14:02:15;18.20;99.90
59075;DHT22;44860;53.020;6.738;2023-09-19T14:04:44;18.20;99.90
59075;DHT22;44860;53.020;6.738;2023-09-19T14:07:09;18.20;99.90
59075;DHT22;44860;53.020;6.738;2023-09-19T14:09:36;18.20;99.90
59075;DHT22;44860;53.020;6.738;2023-09-19T14:12:02;18.20;99.90
59075;DHT22;44860;53.020;6.738;2023-09-19T14:14:28;18.20;99.90
59075;DHT22;44860;53.020;6.738;2023-09-19T14:16:54;18.30;99.90
59075;DHT22;44860;53.020;6.738;2023-09-19T14:19:20;18.30;99.90
59075;DHT22;44860;53.020;6.738;2023-09-19T14:21:46;18.30;99.90
59075;DHT22;44860;53.020;6.738;2023-09-19T14:24:17;18.30;99.90
59075;DHT22;44860;53.020;6.738;2023-09-19T14:26:43;18.40;99.90
59075;DHT22;44860;53.020;6.738;2023-09-19T14:29:09;18.40;99.90
59075;DHT22;44860;53.020;6.738;2023-09-19T14:31:37;18.40;99.90
59075;DHT22;44860;53.020;6.738;2023-09-19T14:34:04;18.40;99.90
59075;DHT22;44860;53.020;6.738;2023-09-19T14:36:30;18.40;99.90
59075;DHT22;44860;53.020;6.738;2023-09-19T14:38:56;18.40;99.90
59075;DHT22;44860;53.020;6.738;2023-09-19T14:41:25;18.40;99.90
59075;DHT22;44860;53.020;6.738;2023-09-19T14:43:54;18.50;99.90
59075;DHT22;44860;53.020;6.738;2023-09-19T14:46:23;18.50;99.90
59075;DHT22;44860;53.020;6.738;2023-09-19T14:48:51;18.50;99.90
59075;DHT22;44860;53.020;6.738;2023-09-19T14:51:17;18.50;99.90
59075;DHT22;44860;53.020;6.738;2023-09-19T14:53:45;18.50;99.90
59075;DHT22;44860;53.020;6.738;2023-09-19T14:56:11;18.50;99.90
59075;DHT22;44860;53.020;6.738;2023-09-19T14:58:38;18.50;99.90
59075;DHT22;44860;53.020;6.738;2023-09-19T15:01:06;18.50;99.90
59075;DHT22;44860;53.020;6.738;2023-09-19T15:03:33;18.50;99.90
59075;DHT22;44860;53.020;6.738;2023-09-19T15:06:04;18.50;99.90
59075;DHT22;44860;53.020;6.738;2023-09-19T15:08:37;18.50;99.90
59075;DHT22;44860;53.020;6.738;2023-09-19T15:11:06;18.50;99.90
59075;DHT22;44860;53.020;6.738;2023-09-19T15:13:33;18.50;99.90
59075;DHT22;44860;53.020;6.738;2023-09-19T15:16:03;18.50;99.90
59075;DHT22;44860;53.020;6.738;2023-09-19T15:18:30;18.50;99.90
59075;DHT22;44860;53.020;6.738;2023-09-19T15:20:56;18.50;99.90
59075;DHT22;44860;53.020;6.738;2023-09-19T15:23:22;18.50;99.90
59075;DHT22;44860;53.020;6.738;2023-09-19T15:25:51;18.40;99.90
59075;DHT22;44860;53.020;6.738;2023-09-19T15:28:18;18.40;99.90
59075;DHT22;44860;53.020;6.738;2023-09-19T15:30:48;18.40;99.90
59075;DHT22;44860;53.020;6.738;2023-09-19T15:33:14;18.30;99.90
59075;DHT22;44860;53.020;6.738;2023-09-19T15:35:40;18.30;99.90
59075;DHT22;44860;53.020;6.738;2023-09-19T15:38:05;18.20;99.90
59075;DHT22;44860;53.020;6.738;2023-09-19T15:40:32;18.10;99.90
59075;DHT22;44860;53.020;6.738;2023-09-19T15:42:58;18.10;99.90
59075;DHT22;44860;53.020;6.738;2023-09-19T15:45:25;18.10;99.90
59075;DHT22;44860;53.020;6.738;2023-09-19T15:47:51;18.00;99.90
59075;DHT22;44860;53.020;6.738;2023-09-19T15:50:17;18.00;99.90
59075;DHT22;44860;53.020;6.738;2023-09-19T15:52:43;18.00;99.90
59075;DHT22;44860;53.020;6.738;2023-09-19T15:55:09;18.00;99.90
59075;DHT22;44860;53.020;6.738;2023-09-19T15:57:38;18.00;99.90
59075;DHT22;44860;53.020;6.738;2023-09-19T16:00:06;18.00;99.90
59075;DHT22;44860;53.020;6.738;2023-09-19T16:02:39;18.00;99.90
59075;DHT22;44860;53.020;6.738;2023-09-19T16:05:05;18.00;99.90
59075;DHT22;44860;53.020;6.738;2023-09-19T16:07:32;18.00;99.90
59075;DHT22;44860;53.020;6.738;2023-09-19T16:09:59;18.00;99.90
59075;DHT22;44860;53.020;6.738;2023-09-19T16:12:25;18.00;99.90
59075;DHT22;44860;53.020;6.738;2023-09-19T16:14:51;18.00;99.90
59075;DHT22;44860;53.020;6.738;2023-09-19T16:17:17;18.00;99.90
59075;DHT22;44860;53.020;6.738;2023-09-19T16:19:43;18.00;99.90
59075;DHT22;44860;53.020;6.738;2023-09-19T16:22:10;18.00;99.90
59075;DHT22;44860;53.020;6.738;2023-09-19T16:24:35;18.00;99.90
59075;DHT22;44860;53.020;6.738;2023-09-19T16:27:01;18.00;99.90
59075;DHT22;44860;53.020;6.738;2023-09-19T16:29:27;18.00;99.90
59075;DHT22;44860;53.020;6.738;2023-09-19T16:31:53;18.00;99.90
59075;DHT22;44860;53.020;6.738;2023-09-19T16:34:18;17.90;99.90
59075;DHT22;44860;53.020;6.738;2023-09-19T16:36:44;17.90;99.90
59075;DHT22;44860;53.020;6.738;2023-09-19T16:39:11;17.70;99.90
59075;DHT22;44860;53.020;6.738;2023-09-19T16:41:37;17.70;99.90